Overseas Santorini — V7TB5 — position and weather

sailwx.info

Track history (hours):
 
Tides and Currents Weather Stations Pressure Air Temp Water Temp Dewpoint Dewpoint Depression Visibility Wind Speed Wind Dir Waves Ship Positions

Overseas Santorini

Last reported at 2017-Feb-05 14:33 UTC. Time now 2017-Feb-21 05:33 UTC.
Position N 36°05' W 005°09'.
Warning: this ship's position is 15 days out of date.

Length 183 m; draft 11 m.

Type: Ship (hazmat cat A). MMSI: 538003772.

Date/timePositionNaut miles runAvg speedWind from/ knotsBaromVisibWave heightAir tempDewpointWater temp
2017-Feb-05 14:33N 36°05' W 005°09'1111.0
2017-Feb-05 13:33N 36°06' W 005°22'1 1.3
2017-Feb-05 12:32N 36°07' W 005°22'0 0.0
2017-Feb-05 11:32N 36°07' W 005°22'0 0.0
2017-Feb-05 10:32N 36°07' W 005°22'0 0.0
2017-Feb-05 09:32N 36°07' W 005°22'0 0.1
2017-Feb-05 08:32N 36°07' W 005°22'0 0.0
2017-Feb-05 07:32N 36°07' W 005°22'0 0.0
2017-Feb-05 06:32N 36°07' W 005°22'0 0.1
2017-Feb-05 05:32N 36°07' W 005°22'0 0.1
2017-Feb-05 04:32N 36°07' W 005°22'0 0.0
2017-Feb-05 03:32N 36°07' W 005°22'0 0.1
2017-Feb-05 02:32N 36°07' W 005°22'0 0.0
2017-Feb-05 01:32N 36°07' W 005°22'1 0.9
2017-Feb-05 00:33N 36°06' W 005°22'5 4.5
2017-Feb-04 23:33N 36°02' W 005°20'5 4.6
2017-Feb-04 22:33N 35°58' W 005°24'6 6.4
2017-Feb-04 21:33N 35°57' W 005°31'8 7.7
2017-Feb-04 20:33N 35°55' W 005°40'57212.9
2017-Feb-03 00:16N 28°40' W 012°60'1013.3
2017-Feb-02 23:30N 28°31' W 013°06'  
Track history (hours):
 
Tides and Currents Weather Stations Pressure Air Temp Water Temp Dewpoint Dewpoint Depression Visibility Wind Speed Wind Dir Waves Ship Positions

Overseas Santorini

Last reported at 2017-Feb-05 14:33 UTC. Time now 2017-Feb-21 05:33 UTC.
Position N 36°05' W 005°09'.
Warning: this ship's position is 15 days out of date.

Length 183 m; draft 11 m.

Type: Ship (hazmat cat A). MMSI: 538003772.

Date/timePositionNaut miles runAvg speedWind from/ knotsBaromVisibWave heightAir tempDewpointWater temp
2017-Feb-05 14:33N 36°05' W 005°09'1111.0
2017-Feb-05 13:33N 36°06' W 005°22'1 1.3
2017-Feb-05 12:32N 36°07' W 005°22'0 0.0
2017-Feb-05 11:32N 36°07' W 005°22'0 0.0
2017-Feb-05 10:32N 36°07' W 005°22'0 0.0
2017-Feb-05 09:32N 36°07' W 005°22'0 0.1
2017-Feb-05 08:32N 36°07' W 005°22'0 0.0
2017-Feb-05 07:32N 36°07' W 005°22'0 0.0
2017-Feb-05 06:32N 36°07' W 005°22'0 0.1
2017-Feb-05 05:32N 36°07' W 005°22'0 0.1
2017-Feb-05 04:32N 36°07' W 005°22'0 0.0
2017-Feb-05 03:32N 36°07' W 005°22'0 0.1
2017-Feb-05 02:32N 36°07' W 005°22'0 0.0
2017-Feb-05 01:32N 36°07' W 005°22'1 0.9
2017-Feb-05 00:33N 36°06' W 005°22'5 4.5
2017-Feb-04 23:33N 36°02' W 005°20'5 4.6
2017-Feb-04 22:33N 35°58' W 005°24'6 6.4
2017-Feb-04 21:33N 35°57' W 005°31'8 7.7
2017-Feb-04 20:33N 35°55' W 005°40'57212.9
2017-Feb-03 00:16N 28°40' W 012°60'1013.3
2017-Feb-02 23:30N 28°31' W 013°06'  

Dump ship's entire track history